sensor_id;sensor_type;location;lat;lon;timestamp;pressure;altitude;pressure_sealevel;temperature;humidity
21574;BME280;10948;48.706;9.258;2023-04-04T00:00:51;98553.50;;;4.18;60.98
21574;BME280;10948;48.706;9.258;2023-04-04T00:03:16;98551.38;;;3.99;61.32
21574;BME280;10948;48.706;9.258;2023-04-04T00:05:41;98553.38;;;3.85;60.58
21574;BME280;10948;48.706;9.258;2023-04-04T00:08:07;98549.28;;;4.16;60.77
21574;BME280;10948;48.706;9.258;2023-04-04T00:10:32;98537.88;;;3.88;61.23
21574;BME280;10948;48.706;9.258;2023-04-04T00:12:57;98541.69;;;4.10;60.44
21574;BME280;10948;48.706;9.258;2023-04-04T00:15:23;98538.78;;;3.85;61.16
21574;BME280;10948;48.706;9.258;2023-04-04T00:17:48;98533.97;;;3.70;60.08
21574;BME280;10948;48.706;9.258;2023-04-04T00:20:13;98533.34;;;3.59;61.08
21574;BME280;10948;48.706;9.258;2023-04-04T00:22:39;98529.84;;;3.63;61.73
21574;BME280;10948;48.706;9.258;2023-04-04T00:25:04;98531.06;;;3.87;60.58
21574;BME280;10948;48.706;9.258;2023-04-04T00:27:29;98529.94;;;3.98;60.31
21574;BME280;10948;48.706;9.258;2023-04-04T00:29:55;98534.44;;;3.89;60.72
21574;BME280;10948;48.706;9.258;2023-04-04T00:32:20;98522.25;;;3.57;60.93
21574;BME280;10948;48.706;9.258;2023-04-04T00:34:46;98526.03;;;3.81;59.79
21574;BME280;10948;48.706;9.258;2023-04-04T00:37:15;98522.22;;;3.97;59.72
21574;BME280;10948;48.706;9.258;2023-04-04T00:39:41;98522.50;;;3.85;59.50
21574;BME280;10948;48.706;9.258;2023-04-04T00:42:07;98525.81;;;3.90;59.32
21574;BME280;10948;48.706;9.258;2023-04-04T00:44:32;98526.06;;;3.78;59.22
21574;BME280;10948;48.706;9.258;2023-04-04T00:47:00;98521.22;;;3.66;59.19
21574;BME280;10948;48.706;9.258;2023-04-04T00:49:25;98531.31;;;3.73;58.61
21574;BME280;10948;48.706;9.258;2023-04-04T00:51:51;98520.88;;;3.81;59.69
21574;BME280;10948;48.706;9.258;2023-04-04T00:54:16;98519.13;;;3.83;59.08
21574;BME280;10948;48.706;9.258;2023-04-04T00:56:42;98513.06;;;3.84;58.93
21574;BME280;10948;48.706;9.258;2023-04-04T00:59:07;98515.19;;;3.67;59.82
21574;BME280;10948;48.706;9.258;2023-04-04T01:01:32;98511.84;;;3.62;59.54
21574;BME280;10948;48.706;9.258;2023-04-04T01:03:58;98508.47;;;3.60;60.31
21574;BME280;10948;48.706;9.258;2023-04-04T01:06:23;98503.28;;;3.61;60.38
21574;BME280;10948;48.706;9.258;2023-04-04T01:08:48;98515.00;;;3.74;60.21
21574;BME280;10948;48.706;9.258;2023-04-04T01:11:15;98505.03;;;3.59;59.95
21574;BME280;10948;48.706;9.258;2023-04-04T01:13:41;98510.97;;;3.63;59.31
21574;BME280;10948;48.706;9.258;2023-04-04T01:16:07;98501.69;;;3.56;59.73
21574;BME280;10948;48.706;9.258;2023-04-04T01:18:32;98500.66;;;3.64;59.21
21574;BME280;10948;48.706;9.258;2023-04-04T01:21:02;98506.13;;;3.48;59.44
21574;BME280;10948;48.706;9.258;2023-04-04T01:26:01;98499.44;;;3.41;58.93
21574;BME280;10948;48.706;9.258;2023-04-04T01:28:27;98500.31;;;3.38;59.64
21574;BME280;10948;48.706;9.258;2023-04-04T01:30:52;98498.63;;;3.37;59.35
21574;BME280;10948;48.706;9.258;2023-04-04T01:33:18;98497.75;;;3.40;59.87
21574;BME280;10948;48.706;9.258;2023-04-04T01:40:47;98489.41;;;3.27;60.30
21574;BME280;10948;48.706;9.258;2023-04-04T01:43:13;98492.03;;;3.26;60.32
21574;BME280;10948;48.706;9.258;2023-04-04T01:45:38;98493.19;;;3.10;59.74
21574;BME280;10948;48.706;9.258;2023-04-04T01:48:04;98489.31;;;3.32;59.83
21574;BME280;10948;48.706;9.258;2023-04-04T01:50:29;98486.91;;;3.24;58.93
21574;BME280;10948;48.706;9.258;2023-04-04T01:52:55;98495.53;;;3.20;59.97
21574;BME280;10948;48.706;9.258;2023-04-04T01:55:20;98486.16;;;3.18;59.56
21574;BME280;10948;48.706;9.258;2023-04-04T01:57:46;98490.50;;;3.16;59.37
21574;BME280;10948;48.706;9.258;2023-04-04T02:00:12;98480.22;;;3.16;60.42
21574;BME280;10948;48.706;9.258;2023-04-04T02:02:37;98484.59;;;3.11;59.63
21574;BME280;10948;48.706;9.258;2023-04-04T02:05:02;98498.78;;;3.30;60.33
21574;BME280;10948;48.706;9.258;2023-04-04T02:07:28;98494.53;;;3.29;60.25
21574;BME280;10948;48.706;9.258;2023-04-04T02:09:53;98486.16;;;3.18;60.54
21574;BME280;10948;48.706;9.258;2023-04-04T02:12:18;98496.56;;;3.12;59.87
21574;BME280;10948;48.706;9.258;2023-04-04T02:14:45;98494.81;;;3.14;60.24
21574;BME280;10948;48.706;9.258;2023-04-04T02:17:10;98500.13;;;3.05;60.90
21574;BME280;10948;48.706;9.258;2023-04-04T02:19:35;98498.28;;;3.13;60.46
21574;BME280;10948;48.706;9.258;2023-04-04T02:22:00;98496.56;;;3.12;60.44
21574;BME280;10948;48.706;9.258;2023-04-04T02:24:26;98489.69;;;3.14;59.83
21574;BME280;10948;48.706;9.258;2023-04-04T02:26:51;98493.41;;;2.98;60.65
21574;BME280;10948;48.706;9.258;2023-04-04T02:29:16;98489.69;;;3.14;60.10
21574;BME280;10948;48.706;9.258;2023-04-04T02:31:41;98495.75;;;3.10;60.48
21574;BME280;10948;48.706;9.258;2023-04-04T02:34:06;98497.41;;;3.12;60.43
21574;BME280;10948;48.706;9.258;2023-04-04T02:36:32;98491.13;;;2.83;60.92
21574;BME280;10948;48.706;9.258;2023-04-04T02:38:57;98497.81;;;2.91;61.31
21574;BME280;10948;48.706;9.258;2023-04-04T02:41:22;98491.19;;;2.80;61.22
21574;BME280;10948;48.706;9.258;2023-04-04T02:43:47;98492.00;;;2.82;60.83
21574;BME280;10948;48.706;9.258;2023-04-04T02:46:13;98493.56;;;2.89;61.64
21574;BME280;10948;48.706;9.258;2023-04-04T02:48:38;98491.81;;;2.91;61.24
21574;BME280;10948;48.706;9.258;2023-04-04T02:51:03;98493.56;;;2.89;61.23
21574;BME280;10948;48.706;9.258;2023-04-04T02:53:29;98494.56;;;2.82;61.87
21574;BME280;10948;48.706;9.258;2023-04-04T02:55:54;98497.94;;;2.85;61.29
21574;BME280;10948;48.706;9.258;2023-04-04T02:58:20;98495.56;;;2.75;62.45
21574;BME280;10948;48.706;9.258;2023-04-04T03:00:45;98491.19;;;2.80;61.86
21574;BME280;10948;48.706;9.258;2023-04-04T03:03:17;98489.63;;;2.71;62.72
21574;BME280;10948;48.706;9.258;2023-04-04T03:05:42;98484.47;;;2.71;62.31
21574;BME280;10948;48.706;9.258;2023-04-04T03:08:08;98490.31;;;2.81;62.53
21574;BME280;10948;48.706;9.258;2023-04-04T03:10:33;98491.16;;;2.30;62.20
21574;BME280;10948;48.706;9.258;2023-04-04T03:12:58;98489.13;;;2.51;63.01
21574;BME280;10948;48.706;9.258;2023-04-04T03:15:24;98490.34;;;2.78;62.45
21574;BME280;10948;48.706;9.258;2023-04-04T03:17:51;98478.28;;;2.83;62.95
21574;BME280;10948;48.706;9.258;2023-04-04T03:20:16;98480.16;;;2.72;62.54
21574;BME280;10948;48.706;9.258;2023-04-04T03:22:41;98481.06;;;2.71;62.82
21574;BME280;10948;48.706;9.258;2023-04-04T03:25:07;98480.44;;;2.57;63.16
21574;BME280;10948;48.706;9.258;2023-04-04T03:27:32;98484.78;;;2.53;62.63
21574;BME280;10948;48.706;9.258;2023-04-04T03:29:58;98477.91;;;2.55;63.42
21574;BME280;10948;48.706;9.258;2023-04-04T03:32:24;98480.50;;;2.54;63.34
21574;BME280;10948;48.706;9.258;2023-04-04T03:34:49;98486.47;;;2.56;63.57
21574;BME280;10948;48.706;9.258;2023-04-04T03:37:16;98477.25;;;2.43;63.21
21574;BME280;10948;48.706;9.258;2023-04-04T03:39:41;98480.44;;;2.57;63.40
21574;BME280;10948;48.706;9.258;2023-04-04T03:42:06;98470.28;;;2.51;63.00
21574;BME280;10948;48.706;9.258;2023-04-04T03:44:31;98484.28;;;2.33;63.97
21574;BME280;10948;48.706;9.258;2023-04-04T03:46:56;98475.38;;;2.54;64.51
21574;BME280;10948;48.706;9.258;2023-04-04T03:49:22;98477.16;;;2.49;63.98
21574;BME280;10948;48.706;9.258;2023-04-04T03:51:47;98482.31;;;2.47;63.76
21574;BME280;10948;48.706;9.258;2023-04-04T03:54:12;98480.53;;;2.52;64.19
21574;BME280;10948;48.706;9.258;2023-04-04T03:56:37;98480.81;;;2.36;64.09
21574;BME280;10948;48.706;9.258;2023-04-04T03:59:03;98479.84;;;2.43;63.61
21574;BME280;10948;48.706;9.258;2023-04-04T04:01:28;98481.78;;;2.29;63.91
21574;BME280;10948;48.706;9.258;2023-04-04T04:03:53;98486.69;;;2.42;63.89
21574;BME280;10948;48.706;9.258;2023-04-04T04:06:19;98485.16;;;2.32;64.50
21574;BME280;10948;48.706;9.258;2023-04-04T04:08:44;98485.69;;;2.51;63.66
21574;BME280;10948;48.706;9.258;2023-04-04T04:11:10;98488.63;;;2.28;64.11
21574;BME280;10948;48.706;9.258;2023-04-04T04:13:35;98486.03;;;2.30;64.05
21574;BME280;10948;48.706;9.258;2023-04-04T04:16:02;98478.72;;;2.06;64.90
21574;BME280;10948;48.706;9.258;2023-04-04T04:18:28;98473.97;;;2.35;65.48
21574;BME280;10948;48.706;9.258;2023-04-04T04:20:56;98475.94;;;2.21;65.54
21574;BME280;10948;48.706;9.258;2023-04-04T04:23:23;98479.16;;;2.32;66.24
21574;BME280;10948;48.706;9.258;2023-04-04T04:25:48;98477.56;;;2.25;65.92
21574;BME280;10948;48.706;9.258;2023-04-04T04:28:13;98481.06;;;2.21;65.80
21574;BME280;10948;48.706;9.258;2023-04-04T04:30:38;98483.09;;;2.01;66.08
21574;BME280;10948;48.706;9.258;2023-04-04T04:33:04;98480.28;;;2.14;65.27
21574;BME280;10948;48.706;9.258;2023-04-04T04:35:29;98482.94;;;2.10;65.58
21574;BME280;10948;48.706;9.258;2023-04-04T04:37:54;98486.56;;;1.97;65.75
21574;BME280;10948;48.706;9.258;2023-04-04T04:40:19;98487.59;;;1.85;66.36
21574;BME280;10948;48.706;9.258;2023-04-04T04:42:45;98482.31;;;1.96;67.40
21574;BME280;10948;48.706;9.258;2023-04-04T04:45:13;98484.94;;;1.93;66.69
21574;BME280;10948;48.706;9.258;2023-04-04T04:47:38;98490.91;;;1.92;67.06
21574;BME280;10948;48.706;9.258;2023-04-04T04:50:03;98488.22;;;2.01;67.15
21574;BME280;10948;48.706;9.258;2023-04-04T04:52:29;98493.47;;;1.92;66.98
21574;BME280;10948;48.706;9.258;2023-04-04T04:54:55;98490.16;;;1.84;67.62
21574;BME280;10948;48.706;9.258;2023-04-04T04:57:21;98498.88;;;1.74;67.54
21574;BME280;10948;48.706;9.258;2023-04-04T04:59:47;98492.50;;;1.99;66.62
21574;BME280;10948;48.706;9.258;2023-04-04T05:02:12;98500.19;;;2.00;66.28
21574;BME280;10948;48.706;9.258;2023-04-04T05:04:37;98500.50;;;1.81;66.76
21574;BME280;10948;48.706;9.258;2023-04-04T05:07:03;98494.34;;;1.91;66.76
21574;BME280;10948;48.706;9.258;2023-04-04T05:09:28;98505.22;;;2.06;67.28
21574;BME280;10948;48.706;9.258;2023-04-04T05:11:53;98508.66;;;2.07;67.12
21574;BME280;10948;48.706;9.258;2023-04-04T05:14:18;98499.66;;;2.36;67.16
21574;BME280;10948;48.706;9.258;2023-04-04T05:16:44;98506.47;;;2.36;66.63
21574;BME280;10948;48.706;9.258;2023-04-04T05:19:09;98510.44;;;2.56;65.92
21574;BME280;10948;48.706;9.258;2023-04-04T05:21:35;98506.81;;;2.66;64.58
21574;BME280;10948;48.706;9.258;2023-04-04T05:24:01;98507.53;;;2.76;65.34
21574;BME280;10948;48.706;9.258;2023-04-04T05:26:27;98510.50;;;2.99;63.37
21574;BME280;10948;48.706;9.258;2023-04-04T05:28:53;98505.34;;;3.00;62.60
21574;BME280;10948;48.706;9.258;2023-04-04T05:31:19;98505.09;;;3.14;62.21
21574;BME280;10948;48.706;9.258;2023-04-04T05:33:45;98509.28;;;3.18;62.80
21574;BME280;10948;48.706;9.258;2023-04-04T05:36:10;98510.75;;;3.31;62.55
21574;BME280;10948;48.706;9.258;2023-04-04T05:38:36;98506.31;;;3.39;61.90
21574;BME280;10948;48.706;9.258;2023-04-04T05:41:03;98504.94;;;3.64;62.30
21574;BME280;10948;48.706;9.258;2023-04-04T05:43:28;98510.63;;;3.78;61.62
21574;BME280;10948;48.706;9.258;2023-04-04T05:45:54;98503.47;;;3.92;61.12
21574;BME280;10948;48.706;9.258;2023-04-04T05:48:19;98511.66;;;4.09;60.76
21574;BME280;10948;48.706;9.258;2023-04-04T05:50:45;98511.91;;;3.98;59.76
21574;BME280;10948;48.706;9.258;2023-04-04T05:53:11;98515.38;;;4.34;59.40
21574;BME280;10948;48.706;9.258;2023-04-04T05:55:36;98515.91;;;4.48;59.24
21574;BME280;10948;48.706;9.258;2023-04-04T05:58:01;98517.97;;;4.67;58.07
21574;BME280;10948;48.706;9.258;2023-04-04T06:00:26;98512.38;;;4.85;59.27
21574;BME280;10948;48.706;9.258;2023-04-04T06:02:54;98521.16;;;4.78;57.93
21574;BME280;10948;48.706;9.258;2023-04-04T06:05:20;98510.41;;;4.95;57.86
21574;BME280;10948;48.706;9.258;2023-04-04T06:07:45;98518.66;;;5.07;56.64
21574;BME280;10948;48.706;9.258;2023-04-04T06:10:10;98516.16;;;5.36;55.75
21574;BME280;10948;48.706;9.258;2023-04-04T06:12:36;98519.69;;;5.62;54.15
21574;BME280;10948;48.706;9.258;2023-04-04T06:15:01;98514.31;;;6.28;54.25
21574;BME280;10948;48.706;9.258;2023-04-04T06:17:26;98511.78;;;7.04;53.02
21574;BME280;10948;48.706;9.258;2023-04-04T06:19:51;98515.91;;;7.80;51.46
21574;BME280;10948;48.706;9.258;2023-04-04T06:22:19;98502.91;;;9.29;48.98
21574;BME280;10948;48.706;9.258;2023-04-04T06:24:45;98504.44;;;9.92;46.09
21574;BME280;10948;48.706;9.258;2023-04-04T06:27:10;98501.78;;;9.93;45.03
21574;BME280;10948;48.706;9.258;2023-04-04T06:29:35;98505.69;;;10.57;44.28
21574;BME280;10948;48.706;9.258;2023-04-04T06:32:01;98500.22;;;10.97;43.12
21574;BME280;10948;48.706;9.258;2023-04-04T06:34:26;98504.63;;;11.29;41.89
21574;BME280;10948;48.706;9.258;2023-04-04T06:36:52;98501.09;;;11.64;41.67
21574;BME280;10948;48.706;9.258;2023-04-04T06:39:17;98501.47;;;11.89;40.70
21574;BME280;10948;48.706;9.258;2023-04-04T06:41:42;98500.16;;;11.65;40.67
21574;BME280;10948;48.706;9.258;2023-04-04T06:44:08;98496.13;;;12.23;39.92
21574;BME280;10948;48.706;9.258;2023-04-04T06:46:35;98502.81;;;12.73;38.60
21574;BME280;10948;48.706;9.258;2023-04-04T06:49:01;98494.66;;;13.80;38.38
21574;BME280;10948;48.706;9.258;2023-04-04T06:51:26;98499.97;;;14.21;37.69
21574;BME280;10948;48.706;9.258;2023-04-04T06:53:53;98499.03;;;13.80;36.76
21574;BME280;10948;48.706;9.258;2023-04-04T06:56:19;98494.25;;;13.44;36.94
21574;BME280;10948;48.706;9.258;2023-04-04T06:58:44;98492.34;;;14.44;36.35
21574;BME280;10948;48.706;9.258;2023-04-04T07:01:10;98491.19;;;15.53;35.60
21574;BME280;10948;48.706;9.258;2023-04-04T07:03:35;98490.69;;;14.70;35.82
21574;BME280;10948;48.706;9.258;2023-04-04T07:06:01;98490.78;;;14.42;34.96
21574;BME280;10948;48.706;9.258;2023-04-04T07:08:28;98489.88;;;14.82;35.01
21574;BME280;10948;48.706;9.258;2023-04-04T07:10:54;98484.81;;;16.18;33.67
21574;BME280;10948;48.706;9.258;2023-04-04T07:13:21;98498.03;;;14.51;34.07
21574;BME280;10948;48.706;9.258;2023-04-04T07:15:47;98494.81;;;15.25;34.32
21574;BME280;10948;48.706;9.258;2023-04-04T07:18:14;98495.75;;;13.34;35.16
21574;BME280;10948;48.706;9.258;2023-04-04T07:20:40;98491.19;;;13.80;34.78
21574;BME280;10948;48.706;9.258;2023-04-04T07:23:05;98495.75;;;14.04;34.85
21574;BME280;10948;48.706;9.258;2023-04-04T07:25:31;98499.28;;;11.32;36.66
21574;BME280;10948;48.706;9.258;2023-04-04T07:27:56;98502.75;;;10.46;38.46
21574;BME280;10948;48.706;9.258;2023-04-04T07:30:22;98500.88;;;10.67;39.56
21574;BME280;10948;48.706;9.258;2023-04-04T07:32:59;98502.50;;;10.15;39.89
21574;BME280;10948;48.706;9.258;2023-04-04T07:35:24;98504.84;;;10.01;39.66
21574;BME280;10948;48.706;9.258;2023-04-04T07:37:50;98501.34;;;10.39;39.77
21574;BME280;10948;48.706;9.258;2023-04-04T07:40:16;98499.84;;;11.71;38.74
21574;BME280;10948;48.706;9.258;2023-04-04T07:42:46;98495.66;;;11.84;38.74
21574;BME280;10948;48.706;9.258;2023-04-04T07:45:11;98495.16;;;14.94;35.86
21574;BME280;10948;48.706;9.258;2023-04-04T07:47:40;98490.22;;;15.54;34.12
21574;BME280;10948;48.706;9.258;2023-04-04T07:50:06;98495.16;;;15.46;33.45
21574;BME280;10948;48.706;9.258;2023-04-04T07:52:32;98497.84;;;16.68;31.84
21574;BME280;10948;48.706;9.258;2023-04-04T07:55:01;98498.59;;;16.81;31.73
21574;BME280;10948;48.706;9.258;2023-04-04T07:57:27;98499.41;;;18.50;30.99
21574;BME280;10948;48.706;9.258;2023-04-04T07:59:52;98489.91;;;20.34;29.69
21574;BME280;10948;48.706;9.258;2023-04-04T08:02:18;98499.97;;;18.65;29.02
21574;BME280;10948;48.706;9.258;2023-04-04T08:04:43;98490.53;;;17.63;30.60
21574;BME280;10948;48.706;9.258;2023-04-04T08:07:08;98496.56;;;18.20;30.32
21574;BME280;10948;48.706;9.258;2023-04-04T08:09:34;98499.06;;;19.79;29.66
21574;BME280;10948;48.706;9.258;2023-04-04T08:12:01;98490.47;;;19.36;28.79
21574;BME280;10948;48.706;9.258;2023-04-04T08:14:26;98492.13;;;20.38;28.25
21574;BME280;10948;48.706;9.258;2023-04-04T08:16:52;98498.78;;;20.23;28.10
21574;BME280;10948;48.706;9.258;2023-04-04T08:19:20;98505.59;;;20.84;27.59
21574;BME280;10948;48.706;9.258;2023-04-04T08:21:46;98497.75;;;20.54;27.97
21574;BME280;10948;48.706;9.258;2023-04-04T08:24:12;98494.22;;;21.31;27.23
21574;BME280;10948;48.706;9.258;2023-04-04T08:26:38;98499.50;;;20.05;28.20
21574;BME280;10948;48.706;9.258;2023-04-04T08:29:03;98490.75;;;21.21;27.56
21574;BME280;10948;48.706;9.258;2023-04-04T08:31:29;98503.97;;;20.34;27.48
21574;BME280;10948;48.706;9.258;2023-04-04T08:33:54;98498.25;;;21.64;26.91
21574;BME280;10948;48.706;9.258;2023-04-04T08:36:20;98500.47;;;22.24;26.89
21574;BME280;10948;48.706;9.258;2023-04-04T08:38:46;98496.13;;;22.59;26.07
21574;BME280;10948;48.706;9.258;2023-04-04T08:41:12;98502.22;;;21.96;26.24
21574;BME280;10948;48.706;9.258;2023-04-04T08:43:39;98495.94;;;21.23;26.46
21574;BME280;10948;48.706;9.258;2023-04-04T08:46:06;98499.19;;;21.82;26.37
21574;BME280;10948;48.706;9.258;2023-04-04T08:48:32;98486.28;;;23.04;26.11
21574;BME280;10948;48.706;9.258;2023-04-04T08:50:59;98490.28;;;20.78;26.09
21574;BME280;10948;48.706;9.258;2023-04-04T08:53:25;98482.03;;;25.21;25.26
21574;BME280;10948;48.706;9.258;2023-04-04T08:55:51;98490.13;;;21.84;25.02
21574;BME280;10948;48.706;9.258;2023-04-04T08:58:17;98487.75;;;23.34;25.13
21574;BME280;10948;48.706;9.258;2023-04-04T09:00:43;98487.22;;;22.14;25.84
21574;BME280;10948;48.706;9.258;2023-04-04T09:03:09;98506.59;;;17.93;27.59
21574;BME280;10948;48.706;9.258;2023-04-04T09:05:38;98493.00;;;17.43;29.41
21574;BME280;10948;48.706;9.258;2023-04-04T09:08:04;98497.19;;;17.45;30.14
21574;BME280;10948;48.706;9.258;2023-04-04T09:10:31;98487.34;;;17.36;30.52
21574;BME280;10948;48.706;9.258;2023-04-04T09:12:56;98488.16;;;17.71;30.11
21574;BME280;10948;48.706;9.258;2023-04-04T09:15:22;98479.66;;;17.79;30.43
21574;BME280;10948;48.706;9.258;2023-04-04T09:17:48;98485.63;;;15.45;31.23
21574;BME280;10948;48.706;9.258;2023-04-04T09:22:57;98487.06;;;15.74;31.71
21574;BME280;10948;48.706;9.258;2023-04-04T09:25:23;98493.66;;;17.68;30.74
21574;BME280;10948;48.706;9.258;2023-04-04T09:27:48;98490.00;;;16.79;30.49
21574;BME280;10948;48.706;9.258;2023-04-04T09:30:14;98487.78;;;18.42;30.87
21574;BME280;10948;48.706;9.258;2023-04-04T09:32:40;98493.47;;;17.02;31.27
21574;BME280;10948;48.706;9.258;2023-04-04T09:35:05;98494.22;;;15.72;31.50
21574;BME280;10948;48.706;9.258;2023-04-04T09:37:31;98482.28;;;14.65;32.25
21574;BME280;10948;48.706;9.258;2023-04-04T09:39:56;98498.22;;;15.65;31.99
21574;BME280;10948;48.706;9.258;2023-04-04T09:42:21;98491.09;;;15.54;32.03
21574;BME280;10948;48.706;9.258;2023-04-04T09:44:48;98486.06;;;16.61;31.34
21574;BME280;10948;48.706;9.258;2023-04-04T09:47:26;98493.75;;;15.28;32.60
21574;BME280;10948;48.706;9.258;2023-04-04T09:49:52;98483.59;;;18.17;32.08
21574;BME280;10948;48.706;9.258;2023-04-04T09:52:18;98494.81;;;16.85;30.42
21574;BME280;10948;48.706;9.258;2023-04-04T09:54:55;98482.53;;;16.96;31.09
21574;BME280;10948;48.706;9.258;2023-04-04T09:57:21;98489.41;;;15.66;32.26
21574;BME280;10948;48.706;9.258;2023-04-04T09:59:46;98500.44;;;16.32;31.74
21574;BME280;10948;48.706;9.258;2023-04-04T10:02:12;98493.47;;;16.07;31.59
21574;BME280;10948;48.706;9.258;2023-04-04T10:04:37;98488.75;;;16.72;31.62
21574;BME280;10948;48.706;9.258;2023-04-04T10:07:03;98483.84;;;16.44;31.00
21574;BME280;10948;48.706;9.258;2023-04-04T10:09:28;98488.56;;;16.39;32.01
21574;BME280;10948;48.706;9.258;2023-04-04T10:12:06;98493.59;;;15.81;31.46
21574;BME280;10948;48.706;9.258;2023-04-04T10:14:36;98477.19;;;16.51;31.78
21574;BME280;10948;48.706;9.258;2023-04-04T10:17:07;98489.81;;;15.60;31.61
21574;BME280;10948;48.706;9.258;2023-04-04T10:19:37;98476.91;;;16.43;31.83
21574;BME280;10948;48.706;9.258;2023-04-04T10:22:04;98473.28;;;17.14;31.21
21574;BME280;10948;48.706;9.258;2023-04-04T10:24:29;98473.41;;;17.47;30.60
21574;BME280;10948;48.706;9.258;2023-04-04T10:26:55;98482.72;;;16.82;31.16
21574;BME280;10948;48.706;9.258;2023-04-04T10:29:21;98477.00;;;15.55;32.50
21574;BME280;10948;48.706;9.258;2023-04-04T10:31:48;98475.75;;;15.86;33.35
21574;BME280;10948;48.706;9.258;2023-04-04T10:34:18;98466.50;;;17.33;31.83
21574;BME280;10948;48.706;9.258;2023-04-04T10:36:45;98464.97;;;16.97;30.52
21574;BME280;10948;48.706;9.258;2023-04-04T10:41:48;98462.72;;;17.37;31.28
21574;BME280;10948;48.706;9.258;2023-04-04T10:44:19;98474.22;;;16.79;31.84
21574;BME280;10948;48.706;9.258;2023-04-04T10:46:47;98472.22;;;16.10;32.66
21574;BME280;10948;48.706;9.258;2023-04-04T10:49:16;98458.09;;;17.63;31.99
21574;BME280;10948;48.706;9.258;2023-04-04T10:51:42;98460.03;;;18.80;31.22
21574;BME280;10948;48.706;9.258;2023-04-04T10:54:08;98463.00;;;18.11;31.03
21574;BME280;10948;48.706;9.258;2023-04-04T10:56:33;98447.34;;;18.95;31.01
21574;BME280;10948;48.706;9.258;2023-04-04T10:59:07;98448.00;;;18.23;30.59
21574;BME280;10948;48.706;9.258;2023-04-04T11:01:49;98448.50;;;17.05;30.92
21574;BME280;10948;48.706;9.258;2023-04-04T11:04:18;98451.53;;;17.90;30.14
21574;BME280;10948;48.706;9.258;2023-04-04T11:12:11;98440.97;;;19.79;30.20
21574;BME280;10948;48.706;9.258;2023-04-04T11:14:53;98440.84;;;17.02;31.02
21574;BME280;10948;48.706;9.258;2023-04-04T11:17:23;98441.22;;;17.09;31.07
21574;BME280;10948;48.706;9.258;2023-04-04T11:19:57;98439.84;;;16.82;30.82
21574;BME280;10948;48.706;9.258;2023-04-04T11:22:24;98438.38;;;17.68;31.47
21574;BME280;10948;48.706;9.258;2023-04-04T11:24:57;98439.06;;;17.59;31.51
21574;BME280;10948;48.706;9.258;2023-04-04T11:27:24;98435.75;;;19.38;32.29
21574;BME280;10948;48.706;9.258;2023-04-04T11:29:49;98439.34;;;19.37;30.78
21574;BME280;10948;48.706;9.258;2023-04-04T11:32:26;98435.34;;;19.63;30.72
21574;BME280;10948;48.706;9.258;2023-04-04T11:34:53;98437.88;;;17.85;30.70
21574;BME280;10948;48.706;9.258;2023-04-04T11:37:20;98434.50;;;17.39;31.09
21574;BME280;10948;48.706;9.258;2023-04-04T11:39:47;98428.38;;;18.80;30.04
21574;BME280;10948;48.706;9.258;2023-04-04T11:42:21;98427.97;;;19.05;30.31
21574;BME280;10948;48.706;9.258;2023-04-04T11:47:18;98430.34;;;19.40;30.14
21574;BME280;10948;48.706;9.258;2023-04-04T11:49:44;98431.66;;;19.75;28.56
21574;BME280;10948;48.706;9.258;2023-04-04T11:52:20;98421.97;;;19.14;30.26
21574;BME280;10948;48.706;9.258;2023-04-04T11:54:47;98419.16;;;20.07;30.45
21574;BME280;10948;48.706;9.258;2023-04-04T11:57:15;98414.63;;;19.38;30.48
21574;BME280;10948;48.706;9.258;2023-04-04T11:59:44;98430.06;;;18.39;30.08
21574;BME280;10948;48.706;9.258;2023-04-04T12:02:10;98424.72;;;17.96;30.86
21574;BME280;10948;48.706;9.258;2023-04-04T12:04:36;98403.66;;;18.81;30.91
21574;BME280;10948;48.706;9.258;2023-04-04T12:07:04;98412.78;;;18.77;31.01
21574;BME280;10948;48.706;9.258;2023-04-04T12:09:31;98415.38;;;17.81;30.36
21574;BME280;10948;48.706;9.258;2023-04-04T12:11:56;98413.91;;;17.99;30.04
21574;BME280;10948;48.706;9.258;2023-04-04T12:14:23;98414.84;;;18.31;30.82
21574;BME280;10948;48.706;9.258;2023-04-04T12:16:51;98412.88;;;18.55;30.42
21574;BME280;10948;48.706;9.258;2023-04-04T12:19:17;98415.25;;;16.70;30.22
21574;BME280;10948;48.706;9.258;2023-04-04T12:21:45;98416.97;;;17.16;30.58
21574;BME280;10948;48.706;9.258;2023-04-04T12:24:11;98406.50;;;17.38;30.32
21574;BME280;10948;48.706;9.258;2023-04-04T12:26:38;98401.09;;;19.11;31.17
21574;BME280;10948;48.706;9.258;2023-04-04T12:29:04;98399.81;;;18.00;30.14
21574;BME280;10948;48.706;9.258;2023-04-04T12:31:30;98395.34;;;18.86;30.29
21574;BME280;10948;48.706;9.258;2023-04-04T12:33:56;98403.66;;;18.81;30.14
21574;BME280;10948;48.706;9.258;2023-04-04T12:36:26;98397.91;;;16.91;30.38
21574;BME280;10948;48.706;9.258;2023-04-04T12:41:22;98387.81;;;18.50;30.32
21574;BME280;10948;48.706;9.258;2023-04-04T12:43:47;98392.97;;;19.03;30.37
21574;BME280;10948;48.706;9.258;2023-04-04T12:46:13;98392.88;;;17.88;30.16
21574;BME280;10948;48.706;9.258;2023-04-04T12:48:38;98391.69;;;17.70;30.05
21574;BME280;10948;48.706;9.258;2023-04-04T12:51:03;98386.22;;;18.16;29.69
21574;BME280;10948;48.706;9.258;2023-04-04T12:53:30;98388.03;;;18.15;29.51
21574;BME280;10948;48.706;9.258;2023-04-04T12:56:00;98392.75;;;16.90;30.20
21574;BME280;10948;48.706;9.258;2023-04-04T12:58:27;98374.66;;;17.30;30.25
21574;BME280;10948;48.706;9.258;2023-04-04T13:00:53;98377.56;;;17.49;30.43
21574;BME280;10948;48.706;9.258;2023-04-04T13:03:19;98390.06;;;15.85;30.69
21574;BME280;10948;48.706;9.258;2023-04-04T13:05:46;98377.13;;;16.65;30.96
21574;BME280;10948;48.706;9.258;2023-04-04T13:08:12;98374.66;;;17.85;30.31
21574;BME280;10948;48.706;9.258;2023-04-04T13:13:34;98361.19;;;18.21;30.45
21574;BME280;10948;48.706;9.258;2023-04-04T13:16:00;98368.91;;;17.25;30.50
21574;BME280;10948;48.706;9.258;2023-04-04T13:18:30;98371.03;;;17.20;30.34
21574;BME280;10948;48.706;9.258;2023-04-04T13:20:56;98369.34;;;16.98;30.11
21574;BME280;10948;48.706;9.258;2023-04-04T13:23:21;98355.50;;;17.17;30.33
21574;BME280;10948;48.706;9.258;2023-04-04T13:25:46;98354.06;;;17.13;30.70